Time;durP1;ratioP1;P1;durP2;ratioP2;P2;SDS_P1;SDS_P2;PMS_P1;PMS_P2;Temp;Humidity;BMP_temperature;BMP_pressure;BME280_temperature;BME280_humidity;BME280_pressure;Samples;Min_cycle;Max_cycle;Signal;HPM_P1;HPM_P2
2022/01/30 00:01:30;;;;;;;22.67;5.22;;;6.20;99.90;;;;;;5046246;28;20044;-80
2022/01/30 00:03:55;;;;;;;18.95;3.85;;;6.00;99.90;;;;;;5049540;28;20068;-80
2022/01/30 00:06:21;;;;;;;19.90;3.20;;;6.00;99.90;;;;;;5047803;28;20045;-80
2022/01/30 00:08:48;;;;;;;18.73;3.35;;;5.90;99.90;;;;;;5032687;28;20057;-80
2022/01/30 00:11:19;;;;;;;17.85;2.75;;;5.90;99.90;;;;;;5012063;28;20073;-80
2022/01/30 00:13:45;;;;;;;23.10;3.58;;;6.00;99.90;;;;;;5042847;28;20053;-80
2022/01/30 00:16:14;;;;;;;17.63;3.10;;;6.10;99.90;;;;;;5049462;28;20159;-80
2022/01/30 00:23:33;;;;;;;24.45;3.55;;;6.20;99.90;;;;;;5049580;28;20053;-80
2022/01/30 00:25:59;;;;;;;26.73;3.22;;;6.20;99.90;;;;;;5048529;28;20048;-80
2022/01/30 00:28:27;;;;;;;18.77;2.88;;;6.30;99.90;;;;;;5029634;28;20162;-80
2022/01/30 00:30:55;;;;;;;23.15;3.33;;;6.30;99.90;;;;;;5047672;28;20049;-80
2022/01/30 00:33:21;;;;;;;19.30;3.13;;;6.30;99.90;;;;;;5030488;28;20127;-81
2022/01/30 00:35:47;;;;;;;24.30;3.67;;;6.20;99.90;;;;;;4988662;28;20152;-81
2022/01/30 00:38:18;;;;;;;21.52;4.65;;;6.20;99.90;;;;;;5042902;28;20527;-80
2022/01/30 00:40:45;;;;;;;15.93;3.17;;;6.20;99.90;;;;;;5045613;28;20063;-81
2022/01/30 00:43:12;;;;;;;17.85;3.45;;;6.10;99.90;;;;;;5050302;28;20048;-80
2022/01/30 00:45:38;;;;;;;21.35;3.25;;;6.10;99.90;;;;;;5034580;28;20056;-80
2022/01/30 00:48:04;;;;;;;22.45;4.20;;;6.60;99.90;;;;;;5051060;28;20040;-80
2022/01/30 00:50:30;;;;;;;;;;;6.00;99.90;;;;;;5049855;28;20559;-80
2022/01/30 00:52:56;;;;;;;16.95;2.90;;;6.00;99.90;;;;;;5049382;28;20018;-80
2022/01/30 00:55:26;;;;;;;17.98;3.40;;;6.00;99.90;;;;;;5051255;28;20404;-80
2022/01/30 00:57:53;;;;;;;18.02;3.28;;;6.00;99.90;;;;;;5041958;28;20060;-80
2022/01/30 01:00:20;;;;;;;18.90;3.00;;;5.90;99.90;;;;;;5046895;28;20052;-80
2022/01/30 01:02:46;;;;;;;20.27;3.08;;;5.90;99.90;;;;;;5002948;28;20049;-80
2022/01/30 01:05:12;;;;;;;19.58;3.00;;;5.90;99.90;;;;;;5048119;28;20041;-80
2022/01/30 01:07:43;;;;;;;18.15;2.92;;;5.90;99.90;;;;;;5045386;28;20071;-80
2022/01/30 01:23:45;;;;;;;14.65;2.35;;;5.40;99.90;;;;;;5044291;28;20124;-79
2022/01/30 01:26:11;;;;;;;17.05;2.88;;;5.60;99.90;;;;;;5040961;28;20113;-79
2022/01/30 01:28:37;;;;;;;15.30;2.60;;;5.50;99.90;;;;;;5046401;28;20052;-79
2022/01/30 01:31:03;;;;;;;;;;;5.30;99.90;;;;;;5047296;28;20508;-79
2022/01/30 01:33:48;;;;;;;17.95;3.00;;;5.20;99.90;;;;;;5052351;28;20008;-79
2022/01/30 01:36:13;;;;;;;18.08;2.72;;;5.10;99.90;;;;;;5051771;28;20110;-79
2022/01/30 01:38:39;;;;;;;18.88;3.08;;;5.10;99.90;;;;;;5053637;28;20127;-79
2022/01/30 01:41:05;;;;;;;22.40;3.85;;;5.10;99.90;;;;;;5019622;28;20075;-80
2022/01/30 01:43:32;;;;;;;21.92;3.33;;;5.00;99.90;;;;;;5053421;28;20056;-80
2022/01/30 01:45:59;;;;;;;12.02;2.45;;;5.00;99.90;;;;;;5052628;28;20392;-80
2022/01/30 01:48:25;;;;;;;20.52;3.60;;;5.00;99.90;;;;;;5043663;28;20503;-80
2022/01/30 01:50:55;;;;;;;17.02;3.13;;;5.20;99.90;;;;;;5013966;28;20138;-79
2022/01/30 01:53:23;;;;;;;31.38;4.05;;;5.00;99.90;;;;;;5032502;28;20516;-79
2022/01/30 01:55:50;;;;;;;15.25;3.33;;;5.60;99.90;;;;;;5042994;28;20048;-80
2022/01/30 01:58:16;;;;;;;31.33;4.35;;;5.00;99.90;;;;;;5032940;28;20045;-80
2022/01/30 02:00:42;;;;;;;20.63;3.75;;;5.10;99.90;;;;;;5016515;28;20064;-79
2022/01/30 02:03:09;;;;;;;17.75;3.28;;;5.00;99.90;;;;;;5016329;28;20636;-79
2022/01/30 02:05:39;;;;;;;25.27;4.30;;;5.00;99.90;;;;;;5031344;28;20056;-80
2022/01/30 02:10:59;;;;;;;26.08;3.42;;;5.00;99.90;;;;;;5044640;28;20084;-80
2022/01/30 02:24:43;;;;;;;17.73;2.70;;;5.30;99.90;;;;;;5049539;28;20057;-80
2022/01/30 02:27:19;;;;;;;17.17;2.67;;;5.40;99.90;;;;;;5015605;28;20088;-80
2022/01/30 02:29:45;;;;;;;26.08;3.45;;;5.30;99.90;;;;;;5032056;28;20041;-80
2022/01/30 02:32:11;;;;;;;22.88;3.10;;;5.30;99.90;;;;;;5031755;28;20053;-80
2022/01/30 02:34:37;;;;;;;23.95;3.05;;;5.30;99.90;;;;;;5048256;28;20496;-80
2022/01/30 02:37:03;;;;;;;20.83;3.75;;;5.50;99.90;;;;;;5024374;28;20057;-80
2022/01/30 02:39:29;;;;;;;20.40;3.38;;;5.30;99.90;;;;;;5014203;28;20052;-79
2022/01/30 02:41:55;;;;;;;24.75;3.78;;;5.30;99.90;;;;;;5011969;28;20066;-80
2022/01/30 02:46:50;;;;;;;20.33;3.15;;;5.30;99.90;;;;;;5012240;28;20061;-80
2022/01/30 02:51:49;;;;;;;22.75;4.68;;;5.20;99.90;;;;;;5010215;28;20046;-80
2022/01/30 02:54:15;;;;;;;19.13;3.60;;;5.30;99.90;;;;;;5047079;28;20072;-80
2022/01/30 02:56:41;;;;;;;25.02;3.92;;;5.40;99.90;;;;;;5040063;28;20500;-80
2022/01/30 02:59:07;;;;;;;;;;;5.70;99.90;;;;;;5012684;28;20053;-80
2022/01/30 03:01:33;;;;;;;30.65;5.10;;;5.40;99.90;;;;;;5028766;28;19928;-80
2022/01/30 03:03:59;;;;;;;25.48;4.15;;;5.50;99.90;;;;;;5012327;28;20438;-80
2022/01/30 03:06:25;;;;;;;19.10;3.58;;;5.50;99.90;;;;;;5012351;28;20056;-80
2022/01/30 03:08:51;;;;;;;24.58;4.63;;;5.50;99.90;;;;;;4999675;28;20049;-80
2022/01/30 03:11:17;;;;;;;29.45;4.20;;;5.60;99.90;;;;;;4982943;28;20056;-80
2022/01/30 03:13:43;;;;;;;31.15;4.63;;;5.60;99.90;;;;;;5016192;28;20064;-80
2022/01/30 03:16:08;;;;;;;26.02;4.18;;;5.60;99.90;;;;;;5015336;28;20045;-80
2022/01/30 03:18:35;;;;;;;42.90;6.55;;;5.70;99.90;;;;;;5032929;28;20136;-79
2022/01/30 03:21:02;;;;;;;24.63;4.13;;;5.60;99.90;;;;;;5013970;28;20053;-80
2022/01/30 03:23:29;;;;;;;26.05;4.82;;;5.50;99.90;;;;;;5046500;28;20053;-81
2022/01/30 03:25:58;;;;;;;27.08;3.63;;;5.60;99.90;;;;;;5021307;28;20142;-82
2022/01/30 03:28:24;;;;;;;18.88;3.35;;;5.30;99.90;;;;;;5026967;28;20180;-81
2022/01/30 03:30:54;;;;;;;26.95;3.60;;;5.40;99.90;;;;;;5035646;28;20486;-82
2022/01/30 03:33:20;;;;;;;15.63;3.22;;;4.80;99.90;;;;;;5035932;28;20045;-81
2022/01/30 03:35:46;;;;;;;24.42;4.05;;;4.80;99.90;;;;;;5017512;28;20049;-81
2022/01/30 03:38:14;;;;;;;20.55;4.00;;;4.90;99.90;;;;;;5018595;28;20087;-81
2022/01/30 03:40:40;;;;;;;19.42;3.45;;;5.00;99.90;;;;;;5019052;28;20052;-81
2022/01/30 03:43:06;;;;;;;23.08;3.33;;;4.80;99.90;;;;;;5034728;28;20053;-82
2022/01/30 03:45:32;;;;;;;33.15;4.10;;;4.80;99.90;;;;;;5002195;28;20488;-81
2022/01/30 03:47:57;;;;;;;22.77;4.15;;;4.80;99.90;;;;;;5002658;28;20057;-83
2022/01/30 03:50:23;;;;;;;20.88;4.03;;;4.80;99.90;;;;;;4999222;28;20049;-82
2022/01/30 03:52:49;;;;;;;25.40;3.67;;;4.80;99.90;;;;;;5016339;28;20076;-82
2022/01/30 03:55:15;;;;;;;39.65;5.50;;;4.90;99.90;;;;;;4999274;28;20062;-81
2022/01/30 03:57:41;;;;;;;28.98;4.25;;;5.00;99.90;;;;;;5024558;28;20044;-81
2022/01/30 04:00:08;;;;;;;24.50;4.53;;;4.90;99.90;;;;;;5018480;28;20056;-82
2022/01/30 04:02:34;;;;;;;33.53;4.07;;;5.00;99.90;;;;;;5018901;28;20049;-81
2022/01/30 04:04:59;;;;;;;26.63;4.32;;;5.00;99.90;;;;;;5032773;28;20785;-82
2022/01/30 04:07:26;;;;;;;27.15;4.38;;;5.00;99.90;;;;;;5034358;28;20060;-81
2022/01/30 04:09:52;;;;;;;28.35;4.60;;;5.10;99.90;;;;;;5068498;28;20045;-81
2022/01/30 04:12:18;;;;;;;;;;;5.10;99.90;;;;;;5034455;28;20107;-81
2022/01/30 04:14:44;;;;;;;32.70;4.60;;;5.20;99.90;;;;;;5018118;28;19924;-81
2022/01/30 04:17:10;;;;;;;;;;;5.20;99.90;;;;;;5001982;28;20045;-81
2022/01/30 04:19:37;;;;;;;28.85;4.93;;;5.20;99.90;;;;;;5015013;28;20024;-80
2022/01/30 04:22:03;;;;;;;26.85;3.17;;;5.20;99.90;;;;;;5012651;28;20041;-82
2022/01/30 04:24:29;;;;;;;30.10;4.90;;;5.20;99.90;;;;;;5020943;28;20053;-80
2022/01/30 04:26:54;;;;;;;37.47;5.35;;;5.20;99.90;;;;;;5018498;28;20053;-80
2022/01/30 04:29:20;;;;;;;25.35;4.88;;;5.20;99.90;;;;;;5034390;28;20045;-80
2022/01/30 04:31:49;;;;;;;22.52;3.88;;;5.20;99.90;;;;;;5034098;28;20091;-80
2022/01/30 04:34:15;;;;;;;37.20;4.85;;;5.10;99.90;;;;;;5017345;28;20057;-81
2022/01/30 04:36:54;;;;;;;24.23;4.20;;;5.10;99.90;;;;;;5029289;28;20055;-80
2022/01/30 04:58:00;;;;;;;34.53;5.20;;;5.30;99.90;;;;;;4989633;28;20481;-80
2022/01/30 05:06:00;;;;;;;32.28;4.70;;;5.70;99.90;;;;;;4997559;28;20058;-80
2022/01/30 05:08:26;;;;;;;23.83;3.78;;;5.10;99.90;;;;;;5010963;28;20053;-80
2022/01/30 05:10:53;;;;;;;29.02;4.63;;;5.10;99.90;;;;;;5010642;28;20049;-80
2022/01/30 05:13:23;;;;;;;31.70;5.00;;;5.00;99.90;;;;;;5010824;28;20065;-80
2022/01/30 05:15:49;;;;;;;29.42;4.63;;;4.90;99.90;;;;;;5026297;28;20049;-81
2022/01/30 05:18:28;;;;;;;29.00;6.18;;;4.90;99.90;;;;;;5030262;28;20061;-80
2022/01/30 05:20:55;;;;;;;28.58;4.85;;;4.90;99.90;;;;;;5028531;28;20057;-79
2022/01/30 05:23:21;;;;;;;24.38;4.20;;;4.90;99.90;;;;;;5029975;28;20080;-80
2022/01/30 05:25:49;;;;;;;32.67;5.60;;;4.80;99.90;;;;;;5029538;28;20532;-80
2022/01/30 05:28:16;;;;;;;36.17;4.90;;;4.80;99.90;;;;;;5012778;28;20053;-80
2022/01/30 05:30:43;;;;;;;26.90;4.88;;;4.90;99.90;;;;;;5027170;28;20096;-80
2022/01/30 05:33:10;;;;;;;32.97;5.90;;;4.80;99.90;;;;;;5010252;28;20085;-81
2022/01/30 05:35:36;;;;;;;38.65;4.93;;;4.80;99.90;;;;;;5008736;28;20145;-80
2022/01/30 05:38:04;;;;;;;35.70;5.60;;;4.90;99.90;;;;;;4994400;28;20054;-80
2022/01/30 05:40:30;;;;;;;29.25;4.88;;;4.80;99.90;;;;;;4994463;28;20830;-80
2022/01/30 05:42:56;;;;;;;34.90;5.93;;;4.80;99.90;;;;;;5013753;28;20053;-80
2022/01/30 05:47:55;;;;;;;41.55;6.13;;;4.80;99.90;;;;;;5026979;28;20053;-80
2022/01/30 05:50:21;;;;;;;36.95;5.40;;;4.80;99.90;;;;;;5005500;28;20037;-81
2022/01/30 05:52:46;;;;;;;28.77;4.72;;;4.80;99.90;;;;;;5017097;28;20052;-79
2022/01/30 05:55:12;;;;;;;30.83;5.03;;;4.90;99.90;;;;;;5016323;28;20522;-81
2022/01/30 05:57:38;;;;;;;33.28;5.47;;;5.10;99.90;;;;;;5033056;28;20079;-80
2022/01/30 06:00:09;;;;;;;31.55;5.53;;;4.90;99.90;;;;;;5032736;28;20480;-80
2022/01/30 06:02:35;;;;;;;31.50;5.20;;;4.80;99.90;;;;;;5015976;28;20942;-80
2022/01/30 06:05:01;;;;;;;;;;;4.80;99.90;;;;;;5032755;28;20124;-80
2022/01/30 06:07:31;;;;;;;41.90;6.00;;;4.70;99.90;;;;;;5031605;28;20062;-80
2022/01/30 06:09:56;;;;;;;36.45;6.80;;;4.80;99.90;;;;;;5031838;28;20045;-80
2022/01/30 06:12:22;;;;;;;35.38;7.35;;;4.60;99.90;;;;;;5037895;28;20493;-80
2022/01/30 06:14:48;;;;;;;39.10;6.50;;;4.50;99.90;;;;;;5006485;28;20128;-80
2022/01/30 06:17:14;;;;;;;50.97;6.20;;;4.40;99.90;;;;;;5032771;28;20412;-80
2022/01/30 06:19:40;;;;;;;52.95;6.43;;;4.40;99.90;;;;;;5016035;28;20060;-80
2022/01/30 06:22:06;;;;;;;46.88;6.97;;;4.30;99.90;;;;;;5021684;28;20045;-79
2022/01/30 06:24:31;;;;;;;40.15;6.88;;;4.30;99.90;;;;;;5012387;28;20052;-79
2022/01/30 06:26:57;;;;;;;43.63;6.38;;;4.40;99.90;;;;;;5030170;28;20052;-80
2022/01/30 06:29:23;;;;;;;37.85;6.55;;;4.30;99.90;;;;;;5031793;28;20057;-79
2022/01/30 06:31:48;;;;;;;39.38;6.93;;;4.40;99.90;;;;;;5048814;28;20045;-80
2022/01/30 06:34:14;;;;;;;45.40;6.70;;;4.40;99.90;;;;;;5031292;28;20052;-80
2022/01/30 06:36:40;;;;;;;34.38;5.97;;;4.50;99.90;;;;;;5025324;28;20485;-80
2022/01/30 06:39:06;;;;;;;41.60;5.95;;;4.60;99.90;;;;;;5028552;28;20484;-80
2022/01/30 06:41:31;;;;;;;41.25;6.72;;;4.60;99.90;;;;;;5030767;28;20056;-80
2022/01/30 06:43:57;;;;;;;50.63;5.95;;;5.20;99.90;;;;;;5032380;28;20061;-80
2022/01/30 06:46:23;;;;;;;38.92;6.28;;;4.80;99.90;;;;;;5031309;28;20052;-80
2022/01/30 06:48:48;;;;;;;37.45;6.13;;;4.80;99.90;;;;;;5032223;28;20458;-80
2022/01/30 06:51:14;;;;;;;38.38;6.30;;;5.90;99.90;;;;;;5030292;28;20131;-80
2022/01/30 06:53:40;;;;;;;53.05;7.32;;;4.80;99.90;;;;;;5015727;28;20061;-80
2022/01/30 06:56:06;;;;;;;37.47;5.93;;;4.90;99.90;;;;;;5010790;28;20554;-80
2022/01/30 06:58:32;;;;;;;37.33;5.43;;;5.00;99.90;;;;;;5031989;28;20045;-80
2022/01/30 07:00:58;;;;;;;40.83;6.30;;;5.00;99.90;;;;;;5031622;28;20051;-80
2022/01/30 07:03:24;;;;;;;37.80;5.63;;;5.10;99.90;;;;;;5015062;28;20056;-80
2022/01/30 07:05:49;;;;;;;36.55;5.60;;;5.20;99.90;;;;;;5030871;28;20045;-80
2022/01/30 07:08:15;;;;;;;38.83;5.97;;;5.20;99.90;;;;;;5031727;28;20442;-80
2022/01/30 07:10:41;;;;;;;41.97;7.18;;;4.80;99.90;;;;;;5031372;28;20052;-80
2022/01/30 07:13:08;;;;;;;36.65;5.47;;;4.80;99.90;;;;;;5032244;28;20052;-80
2022/01/30 07:15:34;;;;;;;42.42;5.82;;;4.70;99.90;;;;;;5015058;28;20099;-80
2022/01/30 07:18:00;;;;;;;36.47;6.00;;;4.70;99.90;;;;;;5015385;28;20049;-80
2022/01/30 07:20:26;;;;;;;32.28;5.18;;;5.30;99.90;;;;;;5029827;28;20052;-80
2022/01/30 07:22:52;;;;;;;44.97;6.93;;;4.90;99.90;;;;;;5048928;28;20052;-80
2022/01/30 07:25:18;;;;;;;34.03;5.72;;;4.80;99.90;;;;;;5006251;28;20054;-79
2022/01/30 07:27:43;;;;;;;46.35;6.78;;;4.80;99.90;;;;;;5041283;28;20069;-80
2022/01/30 07:30:11;;;;;;;35.15;5.88;;;4.90;99.90;;;;;;5012120;28;20056;-80
2022/01/30 07:32:36;;;;;;;42.17;6.97;;;4.90;99.90;;;;;;5028304;28;20045;-80
2022/01/30 07:35:02;;;;;;;47.40;6.25;;;5.00;99.90;;;;;;5011391;28;20057;-80
2022/01/30 07:37:29;;;;;;;42.05;6.50;;;5.00;99.90;;;;;;5011248;28;20539;-80
2022/01/30 07:39:59;;;;;;;46.25;7.45;;;5.20;99.90;;;;;;5011774;28;20053;-80
2022/01/30 07:42:26;;;;;;;43.00;6.20;;;5.10;99.90;;;;;;5028837;28;20516;-81
2022/01/30 07:44:52;;;;;;;32.05;5.70;;;5.30;99.90;;;;;;5041736;28;20057;-80
2022/01/30 07:47:19;;;;;;;32.97;5.55;;;5.30;99.90;;;;;;5015034;28;20041;-80
2022/01/30 07:49:49;;;;;;;34.60;5.68;;;5.30;99.90;;;;;;4994414;28;20056;-80
2022/01/30 07:52:15;;;;;;;36.03;6.05;;;5.30;99.90;;;;;;5012252;28;20057;-80
2022/01/30 07:54:41;;;;;;;35.90;5.57;;;5.30;99.90;;;;;;5015343;28;20378;-80
2022/01/30 07:57:06;;;;;;;38.75;6.45;;;5.30;99.90;;;;;;4999175;28;20053;-80
2022/01/30 07:59:32;;;;;;;38.33;6.40;;;5.30;99.90;;;;;;4982657;28;20378;-80
2022/01/30 08:01:58;;;;;;;40.53;6.28;;;5.20;99.90;;;;;;5021085;28;20040;-80
2022/01/30 08:04:26;;;;;;;33.03;6.00;;;5.20;99.90;;;;;;5017432;28;20051;-80
2022/01/30 08:06:51;;;;;;;43.90;6.47;;;5.20;99.90;;;;;;5017307;28;20057;-80
2022/01/30 08:09:17;;;;;;;37.88;6.05;;;5.10;99.90;;;;;;5034654;28;20064;-80
2022/01/30 08:11:43;;;;;;;43.65;6.28;;;5.20;99.90;;;;;;5034366;28;20183;-80
2022/01/30 08:14:08;;;;;;;44.58;5.78;;;5.50;99.90;;;;;;5018725;28;20040;-80
2022/01/30 08:16:34;;;;;;;33.80;6.53;;;5.20;99.90;;;;;;5001628;28;20132;-80
2022/01/30 08:19:00;;;;;;;44.20;6.30;;;5.20;99.90;;;;;;5034139;28;20078;-80
2022/01/30 08:21:25;;;;;;;47.15;6.80;;;5.20;99.90;;;;;;5032386;28;20088;-80
2022/01/30 08:23:51;;;;;;;47.28;7.35;;;5.50;99.90;;;;;;5017156;28;20064;-80
2022/01/30 08:26:17;;;;;;;35.30;6.10;;;5.30;99.90;;;;;;5001746;28;20057;-80
2022/01/30 08:28:43;;;;;;;46.45;6.55;;;5.30;99.90;;;;;;5020812;28;20088;-80
2022/01/30 08:31:08;;;;;;;31.02;6.70;;;5.40;99.90;;;;;;4991153;28;20041;-79
2022/01/30 08:33:34;;;;;;;36.00;6.40;;;5.40;99.90;;;;;;5018109;28;20091;-79
2022/01/30 08:36:00;;;;;;;36.92;5.82;;;5.40;99.90;;;;;;5015084;28;20077;-78
2022/01/30 08:38:25;;;;;;;29.73;4.95;;;5.40;99.90;;;;;;5017926;28;20048;-80
2022/01/30 08:40:51;;;;;;;38.28;5.88;;;5.50;99.90;;;;;;5033803;28;20276;-79
2022/01/30 08:43:21;;;;;;;36.25;5.32;;;5.50;99.90;;;;;;5051303;28;20059;-79
2022/01/30 08:45:50;;;;;;;34.85;5.03;;;5.50;99.90;;;;;;5033826;28;20896;-79
2022/01/30 08:48:17;;;;;;;34.05;5.55;;;5.50;99.90;;;;;;5034485;28;20063;-79
2022/01/30 08:50:43;;;;;;;36.72;6.05;;;5.60;99.90;;;;;;5048273;28;20044;-79
2022/01/30 08:53:09;;;;;;;28.00;4.68;;;5.80;99.90;;;;;;5050832;28;20056;-79
2022/01/30 08:55:35;;;;;;;34.63;5.25;;;5.60;99.90;;;;;;5048671;28;20439;-80
2022/01/30 08:58:08;;;;;;;30.83;5.60;;;5.70;99.90;;;;;;5027917;28;20100;-80
2022/01/30 09:00:40;;;;;;;36.85;6.05;;;5.60;99.90;;;;;;5021300;28;20049;-80
2022/01/30 09:03:07;;;;;;;34.20;5.00;;;5.70;99.90;;;;;;5048025;28;20049;-79
2022/01/30 09:05:32;;;;;;;;;;;5.80;99.90;;;;;;5022282;28;20132;-80
2022/01/30 09:07:59;;;;;;;28.70;4.50;;;5.80;99.90;;;;;;5018042;28;20743;-79
2022/01/30 09:10:25;;;;;;;27.20;4.55;;;5.80;99.90;;;;;;5025470;28;20524;-79
2022/01/30 09:12:51;;;;;;;31.45;5.63;;;5.70;99.90;;;;;;5023088;28;20242;-79
2022/01/30 09:15:18;;;;;;;33.72;6.05;;;5.60;99.90;;;;;;5022246;28;20060;-79
2022/01/30 09:17:44;;;;;;;38.05;5.57;;;5.70;99.90;;;;;;5027693;28;20523;-79
2022/01/30 09:20:11;;;;;;;28.67;5.38;;;5.70;99.90;;;;;;5024273;28;20092;-80
2022/01/30 09:22:38;;;;;;;33.92;5.47;;;5.60;99.90;;;;;;5018995;28;20057;-80
2022/01/30 09:25:05;;;;;;;31.40;4.82;;;5.60;99.90;;;;;;5030708;28;20052;-80
2022/01/30 09:27:31;;;;;;;34.75;5.55;;;5.60;99.90;;;;;;5032195;28;20091;-80
2022/01/30 09:29:57;;;;;;;;;;;5.60;99.90;;;;;;5004609;28;21935;-80
2022/01/30 09:32:23;;;;;;;37.88;5.22;;;5.60;99.90;;;;;;5013510;28;20012;-79
2022/01/30 09:34:49;;;;;;;34.47;5.93;;;5.70;99.90;;;;;;5022859;28;20063;-79
2022/01/30 09:37:14;;;;;;;30.33;5.10;;;5.80;99.90;;;;;;5039757;28;20040;-79
2022/01/30 09:39:40;;;;;;;35.22;5.05;;;5.90;99.90;;;;;;5018862;28;20537;-80
2022/01/30 09:42:06;;;;;;;37.15;6.05;;;6.00;99.90;;;;;;5047714;28;20058;-79
2022/01/30 09:44:39;;;;;;;39.28;5.72;;;6.00;99.90;;;;;;5047282;28;20048;-79
2022/01/30 09:47:13;;;;;;;36.75;6.10;;;5.90;99.90;;;;;;5046002;28;20056;-80
2022/01/30 09:49:43;;;;;;;43.65;6.30;;;5.90;99.90;;;;;;5043227;28;20140;-80
2022/01/30 09:52:09;;;;;;;39.92;6.40;;;5.90;99.90;;;;;;5049753;28;20063;-80
2022/01/30 09:54:35;;;;;;;39.85;5.35;;;6.10;99.90;;;;;;5028540;28;20045;-80
2022/01/30 09:57:01;;;;;;;33.58;5.28;;;5.80;99.90;;;;;;5049455;28;20052;-79
2022/01/30 09:59:27;;;;;;;36.42;5.60;;;5.90;99.90;;;;;;5006777;28;20489;-80
2022/01/30 10:01:52;;;;;;;36.80;5.57;;;5.90;99.90;;;;;;5023417;28;20110;-80
2022/01/30 10:04:19;;;;;;;52.22;6.40;;;6.00;99.90;;;;;;4998307;28;20048;-79
2022/01/30 10:07:03;;;;;;;31.90;4.95;;;6.10;99.90;;;;;;5010940;28;20045;-79
2022/01/30 10:09:33;;;;;;;36.22;6.50;;;6.10;99.90;;;;;;5013078;28;20397;-79
2022/01/30 10:12:15;;;;;;;33.42;6.25;;;6.10;99.90;;;;;;5012480;28;20120;-80
2022/01/30 10:15:11;;;;;;;31.05;5.15;;;6.10;99.90;;;;;;5012421;28;20057;-78
2022/01/30 10:17:47;;;;;;;36.90;5.57;;;6.10;99.90;;;;;;5011156;28;20053;-77
2022/01/30 10:20:21;;;;;;;47.03;6.15;;;6.20;99.90;;;;;;5004139;28;20715;-77
2022/01/30 10:23:03;;;;;;;46.70;6.50;;;6.40;99.90;;;;;;5031009;28;20085;-77
2022/01/30 10:25:34;;;;;;;39.65;6.45;;;6.50;99.90;;;;;;4996287;28;20119;-77
2022/01/30 10:28:09;;;;;;;34.05;6.13;;;6.50;99.90;;;;;;4997496;28;20040;-77
2022/01/30 10:30:47;;;;;;;39.95;6.68;;;6.40;99.90;;;;;;5031839;28;20055;-77
2022/01/30 10:33:15;;;;;;;36.88;5.57;;;6.40;99.90;;;;;;5032156;28;20041;-77
2022/01/30 10:35:52;;;;;;;43.60;6.28;;;6.40;99.90;;;;;;5030560;28;20045;-78
2022/01/30 10:38:23;;;;;;;33.55;5.53;;;6.40;99.90;;;;;;5016212;28;20135;-77
2022/01/30 10:40:54;;;;;;;43.75;6.30;;;6.40;99.90;;;;;;5015043;28;20057;-77
2022/01/30 10:43:20;;;;;;;49.58;7.13;;;6.50;99.90;;;;;;5032664;28;20053;-77
2022/01/30 10:45:46;;;;;;;35.03;7.07;;;6.60;99.90;;;;;;5004026;28;20404;-77
2022/01/30 10:48:17;;;;;;;33.40;7.20;;;6.60;99.90;;;;;;5012472;28;20053;-77
2022/01/30 10:50:48;;;;;;;32.33;5.05;;;6.60;99.90;;;;;;5027729;28;20056;-78
2022/01/30 10:53:17;;;;;;;38.42;4.85;;;6.80;99.90;;;;;;5012647;28;20050;-77
2022/01/30 10:55:45;;;;;;;40.65;6.88;;;6.70;99.90;;;;;;4995368;28;20480;-78
2022/01/30 10:58:17;;;;;;;33.42;6.50;;;6.80;99.90;;;;;;5038805;28;20068;-78
2022/01/30 11:00:53;;;;;;;44.38;6.40;;;6.80;99.90;;;;;;5023733;28;20126;-78
2022/01/30 11:03:50;;;;;;;35.60;4.63;;;6.90;99.90;;;;;;5040424;28;20495;-77
2022/01/30 11:06:16;;;;;;;31.65;4.38;;;7.00;99.90;;;;;;5028088;28;20066;-77
2022/01/30 11:08:46;;;;;;;28.52;4.53;;;7.00;99.90;;;;;;5050403;28;20488;-78
2022/01/30 11:19:15;;;;;;;42.53;6.97;;;7.50;99.90;;;;;;5051114;28;20470;-77
2022/01/30 11:21:42;;;;;;;34.10;6.07;;;7.40;99.90;;;;;;5032138;28;20044;-77
2022/01/30 11:24:13;;;;;;;38.55;6.35;;;7.40;99.90;;;;;;5039615;28;20056;-77
2022/01/30 11:26:39;;;;;;;35.70;6.63;;;7.30;99.90;;;;;;5048957;28;20040;-77
2022/01/30 11:29:16;;;;;;;48.15;7.90;;;7.20;99.90;;;;;;5021476;28;20032;-77
2022/01/30 11:31:42;;;;;;;28.90;5.88;;;7.10;99.90;;;;;;5046730;28;20052;-78
2022/01/30 11:34:08;;;;;;;30.45;6.25;;;7.00;99.90;;;;;;5062857;28;20060;-78
2022/01/30 11:36:38;;;;;;;35.88;6.15;;;7.00;99.90;;;;;;5035883;28;20045;-77
2022/01/30 11:39:05;;;;;;;40.13;6.20;;;7.00;99.90;;;;;;5035087;28;20821;-77
2022/01/30 11:41:34;;;;;;;40.58;5.90;;;6.90;99.90;;;;;;5035577;28;20139;-77
2022/01/30 11:44:18;;;;;;;34.92;5.55;;;7.10;99.90;;;;;;5043062;28;20132;-77
2022/01/30 11:47:04;;;;;;;40.97;5.43;;;7.20;99.90;;;;;;5016525;28;20180;-77
2022/01/30 11:49:38;;;;;;;36.28;5.90;;;7.20;99.90;;;;;;5018526;28;20100;-77
2022/01/30 11:52:11;;;;;;;38.55;5.68;;;7.30;99.90;;;;;;5035578;28;20041;-77
2022/01/30 11:54:41;;;;;;;36.97;6.32;;;7.50;99.90;;;;;;5035088;28;20057;-77
2022/01/30 11:57:22;;;;;;;33.22;5.43;;;7.80;99.90;;;;;;5035031;28;20079;-78
2022/01/30 11:59:49;;;;;;;34.10;5.40;;;8.10;99.90;;;;;;5018308;28;20499;-78
2022/01/30 12:02:33;;;;;;;30.92;5.72;;;8.40;99.90;;;;;;5018369;28;20092;-77
2022/01/30 12:05:10;;;;;;;28.90;4.88;;;8.50;98.50;;;;;;5032855;28;20311;-77
2022/01/30 12:07:37;;;;;;;27.73;5.25;;;8.70;94.90;;;;;;5034028;28;20103;-77
2022/01/30 12:10:25;;;;;;;32.72;5.22;;;8.90;96.50;;;;;;5024363;28;20163;-77
2022/01/30 12:13:03;;;;;;;30.13;5.15;;;9.10;91.10;;;;;;5017283;28;20060;-77
2022/01/30 12:15:38;;;;;;;26.02;4.90;;;9.10;83.70;;;;;;5016758;28;20053;-77
2022/01/30 12:18:05;;;;;;;25.92;5.03;;;9.20;86.20;;;;;;5049721;28;20118;-77
2022/01/30 12:20:56;;;;;;;28.02;4.32;;;9.20;86.10;;;;;;5035515;28;20391;-77
2022/01/30 12:23:29;;;;;;;27.55;5.00;;;9.10;81.10;;;;;;5028840;28;20507;-77
2022/01/30 12:26:03;;;;;;;31.42;5.38;;;9.10;81.80;;;;;;5058537;28;20525;-77
2022/01/30 12:28:43;;;;;;;20.90;4.57;;;9.10;85.70;;;;;;5051954;28;20043;-77
2022/01/30 12:31:31;;;;;;;33.83;5.38;;;9.20;82.70;;;;;;5051016;28;20816;-77
2022/01/30 12:34:07;;;;;;;28.38;4.90;;;9.40;81.70;;;;;;5044406;28;20098;-78
2022/01/30 12:36:52;;;;;;;27.98;5.30;;;9.50;85.30;;;;;;5048676;28;20129;-78
2022/01/30 12:39:22;;;;;;;31.13;5.75;;;9.70;84.20;;;;;;5021718;28;20115;-78
2022/01/30 12:41:51;;;;;;;27.73;5.30;;;9.50;82.20;;;;;;5014714;28;20054;-78
2022/01/30 12:44:20;;;;;;;31.45;5.40;;;9.80;82.90;;;;;;5035500;28;20136;-78
2022/01/30 12:46:53;;;;;;;27.15;5.53;;;9.90;78.60;;;;;;5023675;28;20052;-80
2022/01/30 12:49:19;;;;;;;27.92;4.63;;;9.90;76.30;;;;;;5034090;28;20053;-79
2022/01/30 12:51:49;;;;;;;27.75;4.85;;;9.90;77.40;;;;;;5023414;28;20048;-79
2022/01/30 12:54:19;;;;;;;33.53;5.38;;;10.00;75.60;;;;;;5017704;28;20053;-79
2022/01/30 12:56:46;;;;;;;31.10;5.32;;;10.10;74.00;;;;;;5017875;28;20558;-79
2022/01/30 12:59:13;;;;;;;23.40;5.03;;;10.30;75.10;;;;;;5015426;28;20546;-79
2022/01/30 13:01:47;;;;;;;19.67;4.85;;;10.20;75.20;;;;;;5014208;28;20083;-79
2022/01/30 13:04:14;;;;;;;29.90;4.93;;;10.20;74.00;;;;;;5014175;28;20242;-79
2022/01/30 13:06:46;;;;;;;30.08;4.65;;;10.30;72.90;;;;;;5016587;28;20111;-79
2022/01/30 13:09:22;;;;;;;24.88;4.40;;;10.30;72.90;;;;;;5033471;28;20096;-79
2022/01/30 13:11:58;;;;;;;27.48;4.38;;;10.50;72.00;;;;;;5019608;28;20053;-79
2022/01/30 13:14:34;;;;;;;28.27;4.68;;;10.60;71.90;;;;;;4998176;28;20500;-79
2022/01/30 13:17:00;;;;;;;;;;;10.70;69.80;;;;;;5013795;28;20124;-79
2022/01/30 13:19:33;;;;;;;27.05;4.97;;;10.90;70.70;;;;;;5014235;28;19963;-79
2022/01/30 13:22:01;;;;;;;29.58;5.20;;;10.90;70.70;;;;;;5028968;28;20053;-79
2022/01/30 13:24:27;;;;;;;31.08;4.82;;;10.80;71.30;;;;;;5018456;28;20049;-79
2022/01/30 13:27:02;;;;;;;31.73;5.40;;;10.70;70.40;;;;;;5019389;28;20053;-79
2022/01/30 13:29:31;;;;;;;23.90;4.60;;;10.70;71.00;;;;;;5014340;28;20057;-79
2022/01/30 13:31:57;;;;;;;29.90;4.75;;;10.60;70.90;;;;;;4997153;28;20128;-79
2022/01/30 13:34:22;;;;;;;;;;;10.40;70.90;;;;;;5002294;28;20072;-79
2022/01/30 13:36:54;;;;;;;31.70;5.97;;;10.00;71.30;;;;;;5031603;28;19964;-79
2022/01/30 13:39:29;;;;;;;33.08;5.43;;;10.00;74.00;;;;;;5033346;28;20063;-79
2022/01/30 13:42:16;;;;;;;28.80;4.80;;;10.30;72.20;;;;;;5016939;28;20179;-79
2022/01/30 13:44:51;;;;;;;25.50;4.32;;;10.60;72.90;;;;;;5023791;28;20049;-78
2022/01/30 13:47:20;;;;;;;27.25;5.18;;;10.70;74.30;;;;;;5025473;28;20110;-78
2022/01/30 13:49:49;;;;;;;29.02;4.50;;;10.40;74.70;;;;;;5005176;28;20198;-78
2022/01/30 13:52:19;;;;;;;30.27;5.28;;;9.90;74.90;;;;;;5019818;28;20053;-78
2022/01/30 13:55:03;;;;;;;30.02;6.03;;;9.40;76.80;;;;;;5042407;28;20134;-78
2022/01/30 13:57:34;;;;;;;36.00;5.93;;;9.00;79.00;;;;;;5021814;28;20036;-78
2022/01/30 14:00:10;;;;;;;29.23;5.20;;;8.60;80.20;;;;;;5019652;28;20124;-79
2022/01/30 14:02:54;;;;;;;30.50;5.43;;;8.30;83.50;;;;;;5021672;28;20053;-78
2022/01/30 14:05:43;;;;;;;28.10;5.07;;;8.10;86.10;;;;;;5005096;28;20060;-78
2022/01/30 14:08:11;;;;;;;26.65;4.50;;;8.10;85.60;;;;;;5029779;28;20563;-78